Portada
METAR-TAF:

METAR-TAF

Aeropuertos :

Kosrae, Micronesia

Aeropuerto Internacional de Kosrae

latitud: 05-21N, longitud: 162-57E, altitud: 3 m

Observación

El informe se hizo hace 2 horas y 25 minutos, a las 03:55 UTC
Viento 7 kt del este-sureste
Temperatura 29°C
Humedad 79%
Presión 1007 hPa
Visibilidad: 16.1 km
Nubes dispersas a una altura de 1600 ft
Cielo nuboso a una altura de 13000 ft
Cielo cubierto a una altura de 30000 ft

METAR: PTSA 270355Z COR 11007KT 10SM SCT016 BKN130 OVC300 29/25 A2974 RMK LAST

Hora: 17:20 (06:20 UTC)

Pronóstico

El informe se hizo hace 2 horas y 59 minutos, a las 03:21 UTC
Pronóstico válido del 27 a las 03 UTC al 27 a las 24 UTC
Viento 8 kt del noreste
Visibilidad: 10 km
Nubes dispersas a una altura de 1600 ft
Cielo nuboso a una altura de 13000 ft
chaparrones en las proximidades

TAF: PTSA 270321Z 2703/2724 04008KT P6SM VCSH SCT016 BKN130

Observaciones y pronósticos meteorológicos de más de 4000 aeropuertos (mensajes METAR y TAF).

Los puntos amarillos y rojos representan las estaciones disponibles.

Ponga el ratón en el punto deseado para ver el nombre de la estación.

Haga clic para ver las observaciones y los pronósticos meteorológicos.

Para cambiar el mapa : haga clic en los botones verdes con una cruz de color negro para hacer un zoom, en el botón verde con un guión para alejar o en las flechas verdes para mapas adyacentes.


METAR-TAF: